createdAt,value
2022-12-04T07:22:48.988Z,124.00
2022-12-04T07:23:51.102Z,128.00
2022-12-04T07:24:53.133Z,136.00
2022-12-04T07:25:55.161Z,148.00
2022-12-04T07:26:57.184Z,156.00
2022-12-04T07:27:59.205Z,160.00
2022-12-04T07:29:01.205Z,164.00
2022-12-04T07:30:03.222Z,164.00
2022-12-04T07:31:05.253Z,160.00
2022-12-04T07:32:07.316Z,164.00
2022-12-04T07:33:09.289Z,184.00
2022-12-04T07:34:11.297Z,192.00
2022-12-04T07:35:13.305Z,192.00
2022-12-04T07:36:15.313Z,208.00
2022-12-04T07:37:18.043Z,224.00
2022-12-04T07:38:18.948Z,232.00
2022-12-04T07:39:20.986Z,240.00
2022-12-04T07:40:22.998Z,248.00
2022-12-04T07:41:25.029Z,268.00
2022-12-04T07:42:27.070Z,252.00
2022-12-04T07:43:29.089Z,256.00
2022-12-04T07:44:31.106Z,272.00
2022-12-04T07:45:33.194Z,276.00
2022-12-04T07:46:35.240Z,276.00
2022-12-04T07:47:37.285Z,268.00
2022-12-04T07:48:39.293Z,284.00
2022-12-04T07:49:41.323Z,296.00
2022-12-04T07:50:43.350Z,292.00
2022-12-04T07:51:45.379Z,292.00
2022-12-04T07:52:47.444Z,276.00
2022-12-04T07:53:49.473Z,308.00
2022-12-04T07:54:51.494Z,328.00
2022-12-04T07:55:53.493Z,336.00
2022-12-04T07:56:55.503Z,348.00
2022-12-04T07:57:57.528Z,356.00
2022-12-04T07:58:59.545Z,360.00
2022-12-04T08:00:01.538Z,360.00
2022-12-04T08:01:03.585Z,380.00
2022-12-04T08:02:05.565Z,380.00
2022-12-04T08:03:17.003Z,380.00
2022-12-04T08:04:09.139Z,380.00
2022-12-04T08:05:11.158Z,408.00
2022-12-04T08:06:13.183Z,388.00
2022-12-04T08:07:15.211Z,400.00
2022-12-04T08:08:17.320Z,412.00
2022-12-04T08:09:19.357Z,432.00
2022-12-04T08:10:21.363Z,420.00
2022-12-04T08:11:23.371Z,428.00
2022-12-04T08:12:25.390Z,440.00
2022-12-04T08:13:27.398Z,452.00
2022-12-04T08:14:29.407Z,416.00
2022-12-04T08:15:31.428Z,452.00
2022-12-04T08:16:33.493Z,484.00
2022-12-04T08:17:35.576Z,488.00
2022-12-04T08:18:37.615Z,504.00
2022-12-04T08:19:39.627Z,548.00
2022-12-04T08:20:41.653Z,524.00
2022-12-04T08:21:43.680Z,520.00
2022-12-04T08:22:45.707Z,556.00
2022-12-04T08:23:47.721Z,576.00
2022-12-04T08:24:49.724Z,516.00
2022-12-04T08:25:51.759Z,556.00
2022-12-04T08:26:53.812Z,508.00
2022-12-04T08:27:55.827Z,520.00
2022-12-04T08:28:57.845Z,556.00
2022-12-04T08:29:59.842Z,576.00
2022-12-04T08:31:02.020Z,600.00
2022-12-04T08:32:04.019Z,580.00
2022-12-04T08:33:06.027Z,576.00
2022-12-04T08:34:08.052Z,576.00
2022-12-04T08:35:10.053Z,572.00
2022-12-04T08:36:12.102Z,556.00
2022-12-04T08:37:14.175Z,584.00
2022-12-04T08:38:16.208Z,688.00
2022-12-04T08:39:18.247Z,692.00
2022-12-04T08:40:20.254Z,724.00
2022-12-04T08:41:22.840Z,680.00
2022-12-04T08:42:23.624Z,668.00
2022-12-04T08:43:25.650Z,680.00
2022-12-04T08:44:27.707Z,636.00
2022-12-04T08:45:29.716Z,692.00
2022-12-04T08:46:31.866Z,716.00
2022-12-04T08:47:33.877Z,712.00
2022-12-04T08:48:35.899Z,748.00
2022-12-04T08:49:37.939Z,780.00
2022-12-04T08:50:39.966Z,780.00
2022-12-04T08:51:41.977Z,792.00
2022-12-04T08:52:43.983Z,820.00
2022-12-04T08:53:45.993Z,816.00
2022-12-04T08:54:48.045Z,792.00
2022-12-04T08:55:50.091Z,824.00
2022-12-04T08:56:52.109Z,856.00
2022-12-04T08:57:54.119Z,864.00
2022-12-04T08:58:56.133Z,820.00
2022-12-04T08:59:58.404Z,836.00
2022-12-04T09:00:59.549Z,832.00
2022-12-04T09:02:01.615Z,872.00
2022-12-04T09:03:03.618Z,876.00
2022-12-04T09:04:05.692Z,832.00
2022-12-04T09:05:07.705Z,904.00
2022-12-04T09:06:09.737Z,860.00
2022-12-04T09:07:11.731Z,832.00
2022-12-04T09:08:13.783Z,792.00
2022-12-04T09:09:15.797Z,784.00
2022-12-04T09:10:17.824Z,760.00
2022-12-04T09:11:20.527Z,792.00
2022-12-04T09:12:21.454Z,808.00
2022-12-04T09:13:23.457Z,828.00
2022-12-04T09:14:25.485Z,868.00
2022-12-04T09:15:27.606Z,920.00
2022-12-04T09:16:29.702Z,948.00
2022-12-04T09:17:31.778Z,980.00
2022-12-04T09:18:33.786Z,956.00
2022-12-04T09:19:35.789Z,1040.00
2022-12-04T09:20:37.805Z,1076.00
2022-12-04T09:21:39.813Z,1144.00
2022-12-04T09:23:02.806Z,1148.00
2022-12-04T09:23:43.270Z,1096.00
2022-12-04T09:24:45.305Z,1052.00
2022-12-04T09:25:47.339Z,1140.00
2022-12-04T09:26:49.350Z,1096.00
2022-12-04T09:27:51.329Z,1064.00
2022-12-04T09:28:53.338Z,1120.00
2022-12-04T09:29:55.552Z,1176.00
2022-12-04T09:30:56.645Z,1208.00
2022-12-04T09:31:58.638Z,1144.00
2022-12-04T09:33:00.663Z,1128.00
2022-12-04T09:34:02.674Z,1192.00
2022-12-04T09:35:04.681Z,1176.00
2022-12-04T09:36:06.699Z,1160.00
2022-12-04T09:37:08.732Z,1200.00
2022-12-04T09:38:10.713Z,1160.00
2022-12-04T09:39:12.727Z,1064.00
2022-12-04T09:40:14.748Z,1116.00
2022-12-04T09:41:16.849Z,1116.00
2022-12-04T09:42:18.858Z,1032.00
2022-12-04T09:43:21.822Z,1076.00
2022-12-04T09:44:22.720Z,1000.00
2022-12-04T09:45:24.734Z,980.00
2022-12-04T09:46:26.806Z,888.00
2022-12-04T09:47:28.816Z,840.00
2022-12-04T09:48:30.823Z,812.00
2022-12-04T09:49:32.831Z,796.00
2022-12-04T09:50:34.839Z,816.00
2022-12-04T09:51:36.885Z,844.00
2022-12-04T09:52:38.893Z,844.00
2022-12-04T09:53:40.880Z,892.00
2022-12-04T09:54:42.929Z,860.00
2022-12-04T09:55:44.938Z,820.00
2022-12-04T09:56:46.991Z,872.00
2022-12-04T09:57:49.017Z,968.00
2022-12-04T09:58:51.023Z,912.00
2022-12-04T09:59:53.266Z,964.00
2022-12-04T10:00:54.292Z,1048.00
2022-12-04T10:01:56.308Z,1088.00
2022-12-04T10:02:58.464Z,1080.00
2022-12-04T10:04:05.995Z,1052.00
2022-12-04T10:05:01.911Z,976.00
2022-12-04T10:06:03.922Z,932.00
2022-12-04T10:07:05.946Z,936.00
2022-12-04T10:08:08.015Z,896.00
2022-12-04T10:09:10.008Z,932.00
2022-12-04T10:10:12.033Z,936.00
2022-12-04T10:11:14.042Z,976.00
2022-12-04T10:12:16.068Z,928.00
2022-12-04T10:13:18.077Z,936.00
2022-12-04T10:14:20.093Z,948.00
2022-12-04T10:15:22.103Z,916.00
2022-12-04T10:16:24.191Z,896.00
2022-12-04T10:17:31.000Z,800.00
2022-12-04T10:18:27.612Z,792.00
2022-12-04T10:19:29.613Z,752.00
2022-12-04T10:20:31.621Z,736.00
2022-12-04T10:21:33.663Z,724.00
2022-12-04T10:22:35.692Z,704.00
2022-12-04T10:23:37.699Z,740.00
2022-12-04T10:24:39.712Z,720.00
2022-12-04T10:25:41.702Z,732.00
2022-12-04T10:26:43.740Z,712.00
2022-12-04T10:27:45.772Z,652.00
2022-12-04T10:28:53.547Z,608.00
2022-12-04T10:29:49.210Z,604.00
2022-12-04T10:30:51.268Z,580.00
2022-12-04T10:31:53.267Z,620.00
2022-12-04T10:32:55.287Z,644.00
2022-12-04T10:33:57.320Z,636.00
2022-12-04T10:34:59.321Z,624.00
2022-12-04T10:36:01.319Z,680.00
2022-12-04T10:37:03.329Z,720.00
2022-12-04T10:38:05.388Z,776.00
2022-12-04T10:39:07.428Z,812.00
2022-12-04T10:40:09.426Z,856.00
2022-12-04T10:41:14.858Z,936.00
2022-12-04T10:42:12.879Z,1052.00
2022-12-04T10:43:14.907Z,1092.00
2022-12-04T10:44:16.919Z,1144.00
2022-12-04T10:45:18.925Z,1124.00
2022-12-04T10:46:21.026Z,1284.00
2022-12-04T10:47:23.011Z,1476.00
2022-12-04T10:48:25.045Z,1628.00
2022-12-04T10:49:27.090Z,1784.00
2022-12-04T10:50:29.772Z,1760.00
2022-12-04T10:51:30.693Z,1860.00
2022-12-04T10:52:32.702Z,1884.00
2022-12-04T10:53:34.739Z,1956.00
2022-12-04T10:54:36.761Z,2104.00
2022-12-04T10:55:38.781Z,2228.00
2022-12-04T10:56:40.808Z,2444.00
2022-12-04T10:57:42.841Z,2504.00
2022-12-04T10:58:44.898Z,2292.00
2022-12-04T10:59:46.908Z,2288.00
2022-12-04T11:00:48.938Z,2124.00
2022-12-04T11:01:51.023Z,1788.00
2022-12-04T11:02:53.027Z,1656.00
2022-12-04T11:03:55.017Z,1508.00
2022-12-04T11:04:57.049Z,1476.00
2022-12-04T11:05:59.045Z,1544.00
2022-12-04T11:07:01.073Z,1572.00
2022-12-04T11:08:03.190Z,1560.00
2022-12-04T11:09:05.225Z,1588.00
2022-12-04T11:10:07.230Z,1568.00
2022-12-04T11:11:09.237Z,1820.00
2022-12-04T11:12:11.244Z,1936.00
2022-12-04T11:13:13.276Z,1844.00
2022-12-04T11:14:15.298Z,1804.00
2022-12-04T11:15:17.306Z,1780.00
2022-12-04T11:16:19.362Z,1840.00
2022-12-04T11:17:21.398Z,1920.00
2022-12-04T11:18:23.406Z,1844.00
2022-12-04T11:19:25.427Z,1808.00
2022-12-04T11:20:27.435Z,1828.00
2022-12-04T11:21:29.462Z,1800.00
2022-12-04T11:22:31.462Z,1724.00
2022-12-04T11:23:33.498Z,1612.00
2022-12-04T11:24:35.516Z,1632.00
2022-12-04T11:25:37.541Z,1760.00
2022-12-04T11:26:39.547Z,1768.00
2022-12-04T11:27:41.578Z,1688.00
2022-12-04T11:28:43.620Z,1692.00
2022-12-04T11:29:45.603Z,1620.00
2022-12-04T11:30:47.610Z,1488.00
2022-12-04T11:31:49.674Z,1484.00
2022-12-04T11:32:51.679Z,1392.00
2022-12-04T11:33:53.688Z,1388.00
2022-12-04T11:34:55.717Z,1392.00
2022-12-04T11:35:57.747Z,1532.00
2022-12-04T11:36:59.785Z,1696.00
2022-12-04T11:38:01.797Z,1772.00
2022-12-04T11:39:03.824Z,1864.00
2022-12-04T11:40:05.864Z,1852.00
2022-12-04T11:41:07.893Z,1760.00
2022-12-04T11:42:09.933Z,1676.00
2022-12-04T11:43:11.928Z,1636.00
2022-12-04T11:44:14.047Z,1560.00
2022-12-04T11:45:16.105Z,1388.00
2022-12-04T11:46:18.205Z,1380.00
2022-12-04T11:47:20.213Z,1456.00
2022-12-04T11:48:22.217Z,1416.00
2022-12-04T11:49:24.243Z,1364.00
2022-12-04T11:50:26.269Z,1356.00
2022-12-04T11:51:28.292Z,1480.00
2022-12-04T11:52:30.296Z,1464.00
2022-12-04T11:53:32.329Z,1384.00
2022-12-04T11:54:34.337Z,1364.00
2022-12-04T11:55:36.381Z,1364.00
2022-12-04T11:56:38.406Z,1360.00
2022-12-04T11:57:40.424Z,1372.00
2022-12-04T11:58:42.449Z,1348.00
2022-12-04T11:59:44.477Z,1336.00
2022-12-04T12:00:46.545Z,1296.00
2022-12-04T12:01:51.972Z,1208.00
2022-12-04T12:02:50.138Z,1104.00
2022-12-04T12:03:51.098Z,1064.00
2022-12-04T12:04:53.117Z,1040.00
2022-12-04T12:05:55.121Z,1056.00
2022-12-04T12:06:57.138Z,1048.00
2022-12-04T12:08:02.876Z,984.00
2022-12-04T12:09:00.853Z,996.00
2022-12-04T12:10:02.856Z,948.00
2022-12-04T12:11:04.874Z,972.00
2022-12-04T12:12:06.883Z,1044.00
2022-12-04T12:13:08.894Z,1080.00
2022-12-04T12:14:10.891Z,1064.00
2022-12-04T12:15:12.911Z,1032.00
2022-12-04T12:16:15.377Z,1032.00
2022-12-04T12:17:16.279Z,1092.00
2022-12-04T12:18:20.913Z,1120.00
2022-12-04T12:19:19.967Z,1152.00
2022-12-04T12:20:21.997Z,1168.00
2022-12-04T12:21:24.021Z,1204.00
2022-12-04T12:22:26.069Z,1264.00
2022-12-04T12:23:28.059Z,1432.00
2022-12-04T12:24:30.079Z,1476.00
2022-12-04T12:25:32.083Z,1700.00
2022-12-04T12:26:34.102Z,1896.00
2022-12-04T12:27:36.138Z,1904.00
2022-12-04T12:28:38.167Z,1712.00
2022-12-04T12:29:40.197Z,1700.00
2022-12-04T12:30:42.204Z,1704.00
2022-12-04T12:31:44.264Z,1776.00
2022-12-04T12:32:46.309Z,1780.00
2022-12-04T12:33:48.325Z,1760.00
2022-12-04T12:34:50.352Z,1848.00
2022-12-04T12:35:52.380Z,1840.00
2022-12-04T12:37:00.561Z,1864.00
2022-12-04T12:37:55.837Z,1852.00
2022-12-04T12:38:57.866Z,1972.00
2022-12-04T12:39:59.873Z,2092.00
2022-12-04T12:41:01.873Z,2192.00
2022-12-04T12:42:03.910Z,2168.00
2022-12-04T12:43:05.979Z,2124.00
2022-12-04T12:44:07.968Z,2076.00
2022-12-04T12:45:10.037Z,2000.00
2022-12-04T12:46:12.110Z,2060.00
2022-12-04T12:47:14.122Z,2016.00
2022-12-04T12:48:16.131Z,1932.00
2022-12-04T12:49:18.201Z,1900.00
2022-12-04T12:50:20.223Z,1880.00
2022-12-04T12:51:30.683Z,1768.00
2022-12-04T12:52:23.737Z,1652.00
2022-12-04T12:53:25.746Z,1596.00
2022-12-04T12:54:27.757Z,1500.00
2022-12-04T12:55:29.779Z,1460.00
2022-12-04T12:56:31.808Z,1460.00
2022-12-04T12:57:33.845Z,1408.00
2022-12-04T12:58:35.853Z,1488.00
2022-12-04T12:59:37.892Z,1344.00
2022-12-04T13:00:39.913Z,1300.00
2022-12-04T13:01:41.959Z,1192.00
2022-12-04T13:02:44.056Z,1112.00
2022-12-04T13:03:46.053Z,1020.00
2022-12-04T13:04:48.043Z,1020.00
2022-12-04T13:05:50.076Z,1016.00
2022-12-04T13:06:52.093Z,1008.00
2022-12-04T13:07:54.164Z,1040.00
2022-12-04T13:09:06.575Z,996.00
2022-12-04T13:09:57.987Z,1040.00
2022-12-04T13:10:59.070Z,1000.00
2022-12-04T13:12:01.079Z,980.00
2022-12-04T13:13:03.094Z,908.00
2022-12-04T13:14:05.106Z,936.00
2022-12-04T13:15:07.112Z,840.00
2022-12-04T13:16:09.167Z,848.00
2022-12-04T13:17:11.249Z,840.00
2022-12-04T13:18:13.277Z,820.00
2022-12-04T13:19:15.295Z,792.00
2022-12-04T13:20:17.314Z,820.00
2022-12-04T13:21:19.344Z,816.00
2022-12-04T13:22:21.352Z,840.00
2022-12-04T13:23:23.842Z,756.00
2022-12-04T13:24:24.768Z,788.00
2022-12-04T13:25:26.797Z,792.00
2022-12-04T13:26:28.824Z,808.00
2022-12-04T13:27:30.834Z,796.00
2022-12-04T13:28:32.853Z,684.00
2022-12-04T13:29:34.899Z,668.00
2022-12-04T13:30:36.927Z,720.00
2022-12-04T13:31:39.036Z,724.00
2022-12-04T13:32:41.049Z,704.00
2022-12-04T13:33:43.065Z,728.00
2022-12-04T13:34:45.095Z,716.00
2022-12-04T13:35:47.115Z,772.00
2022-12-04T13:36:49.149Z,816.00
2022-12-04T13:37:51.189Z,824.00
2022-12-04T13:38:57.831Z,824.00
2022-12-04T13:39:54.992Z,724.00
2022-12-04T13:40:56.109Z,632.00
2022-12-04T13:41:58.141Z,600.00
2022-12-04T13:43:00.166Z,584.00
2022-12-04T13:44:07.015Z,596.00
2022-12-04T13:45:03.625Z,572.00
2022-12-04T13:46:05.629Z,592.00
2022-12-04T13:47:07.651Z,552.00
2022-12-04T13:48:09.659Z,528.00
2022-12-04T13:49:11.696Z,560.00
2022-12-04T13:50:13.725Z,548.00
2022-12-04T13:51:15.757Z,540.00
2022-12-04T13:52:17.779Z,496.00
2022-12-04T13:53:19.789Z,480.00
2022-12-04T13:54:21.835Z,504.00
2022-12-04T13:55:23.865Z,444.00
2022-12-04T13:56:25.865Z,428.00
2022-12-04T13:57:27.869Z,436.00
2022-12-04T13:58:29.859Z,384.00
2022-12-04T13:59:31.891Z,384.00
2022-12-04T14:00:33.918Z,404.00
2022-12-04T14:01:36.026Z,360.00
2022-12-04T14:02:38.102Z,352.00
2022-12-04T14:03:40.091Z,344.00
2022-12-04T14:04:42.599Z,328.00
2022-12-04T14:05:43.514Z,340.00
2022-12-04T14:06:45.544Z,320.00
2022-12-04T14:07:47.604Z,312.00
2022-12-04T14:08:49.600Z,304.00
2022-12-04T14:09:51.636Z,296.00
2022-12-04T14:10:53.663Z,324.00
2022-12-04T14:11:55.671Z,300.00
2022-12-04T14:12:57.680Z,312.00
2022-12-04T14:14:04.980Z,292.00
2022-12-04T14:15:01.141Z,280.00
2022-12-04T14:16:03.151Z,276.00
2022-12-04T14:17:05.241Z,272.00
2022-12-04T14:18:07.267Z,264.00
2022-12-04T14:19:09.291Z,260.00
2022-12-04T14:20:11.354Z,244.00
2022-12-04T14:21:13.350Z,252.00
2022-12-04T14:22:15.364Z,236.00
2022-12-04T14:23:17.393Z,244.00
2022-12-04T14:24:19.382Z,232.00
2022-12-04T14:25:21.423Z,208.00
2022-12-04T14:26:29.265Z,208.00
2022-12-04T14:27:24.615Z,204.00
2022-12-04T14:28:26.633Z,204.00
2022-12-04T14:29:28.645Z,196.00
2022-12-04T14:30:30.729Z,192.00
2022-12-04T14:31:32.731Z,184.00
2022-12-04T14:32:34.729Z,192.00
2022-12-04T14:33:36.735Z,176.00
2022-12-04T14:34:38.745Z,180.00
2022-12-04T14:35:40.796Z,176.00
2022-12-04T14:36:42.829Z,180.00
2022-12-04T14:37:44.837Z,176.00
2022-12-04T14:38:46.845Z,180.00
2022-12-04T14:39:48.865Z,168.00
2022-12-04T14:40:50.884Z,168.00
2022-12-04T14:41:52.911Z,160.00
2022-12-04T14:42:54.918Z,152.00
2022-12-04T14:43:56.925Z,144.00
2022-12-04T14:44:59.299Z,132.00
